createdAt,value
2022-11-17T00:01:37.004Z,99819.88
2022-11-17T00:04:04.499Z,99814.44
2022-11-17T00:06:31.974Z,99814.69
2022-11-17T00:09:00.775Z,99812.16
2022-11-17T00:11:48.206Z,99816.75
2022-11-17T00:14:32.946Z,99816.16
2022-11-17T00:17:00.563Z,99812.53
2022-11-17T00:20:00.015Z,99814.06
2022-11-17T00:22:27.482Z,99810.56
2022-11-17T00:24:56.261Z,99813.84
2022-11-17T00:27:23.753Z,99805.81
2022-11-17T00:29:51.275Z,99807.94
2022-11-17T00:32:37.905Z,99802.44
2022-11-17T00:35:06.367Z,99799.44
2022-11-17T00:37:35.373Z,99793.72
2022-11-17T00:40:04.561Z,99782.94
2022-11-17T00:42:32.043Z,99779.34
2022-11-17T00:44:59.496Z,99785.66
2022-11-17T00:47:26.948Z,99784.94
2022-11-17T00:49:54.417Z,99787.19
2022-11-17T00:52:21.877Z,99781.50
2022-11-17T00:54:49.326Z,99775.31
2022-11-17T00:57:18.163Z,99777.19
2022-11-17T00:59:45.631Z,99778.22
2022-11-17T01:02:13.079Z,99777.97
2022-11-17T01:04:40.558Z,99783.44
2022-11-17T01:07:08.082Z,99777.97
2022-11-17T01:09:35.572Z,99772.19
2022-11-17T01:12:03.023Z,99780.25
2022-11-17T01:14:32.613Z,99780.06
2022-11-17T01:17:00.056Z,99777.69
2022-11-17T01:19:27.531Z,99765.59
2022-11-17T01:21:54.951Z,99763.19
2022-11-17T01:24:22.470Z,99752.84
2022-11-17T01:26:51.764Z,99748.41
2022-11-17T01:29:19.227Z,99757.59
2022-11-17T01:31:51.443Z,99744.63
2022-11-17T01:34:18.945Z,99730.06
2022-11-17T01:37:03.974Z,99730.09
2022-11-17T01:39:32.475Z,99724.63
2022-11-17T01:42:04.115Z,99717.63
2022-11-17T01:45:00.699Z,99717.06
2022-11-17T01:47:37.383Z,99720.47
2022-11-17T01:50:09.246Z,99715.13
2022-11-17T01:52:38.387Z,99717.66
2022-11-17T01:55:08.139Z,99715.19
2022-11-17T01:57:39.916Z,99723.75
2022-11-17T02:00:10.100Z,99717.69
2022-11-17T02:02:40.356Z,99707.06
2022-11-17T02:05:18.618Z,99707.78
2022-11-17T02:07:46.236Z,99711.81
2022-11-17T02:10:13.780Z,99695.69
2022-11-17T02:12:41.920Z,99692.94
2022-11-17T02:15:10.056Z,99699.66
2022-11-17T02:17:41.335Z,99706.50
2022-11-17T02:20:11.716Z,99698.63
2022-11-17T02:23:11.355Z,99696.09
2022-11-17T02:26:04.362Z,99703.81
2022-11-17T02:28:34.231Z,99685.84
2022-11-17T02:31:12.022Z,99684.19
2022-11-17T02:33:47.061Z,99673.41
2022-11-17T02:36:18.887Z,99669.75
2022-11-17T02:38:54.273Z,99678.94
2022-11-17T02:41:25.955Z,99683.16
2022-11-17T02:44:05.558Z,99679.69
2022-11-17T02:46:41.812Z,99667.09
2022-11-17T02:49:15.066Z,99663.63
2022-11-17T02:51:43.784Z,99665.91
2022-11-17T02:54:12.417Z,99653.72
2022-11-17T02:56:43.672Z,99651.72
2022-11-17T02:59:14.270Z,99655.63
2022-11-17T03:01:57.392Z,99643.81
2022-11-17T03:04:31.543Z,99653.56
2022-11-17T03:07:14.933Z,99656.00
2022-11-17T03:09:48.292Z,99647.28
2022-11-17T03:12:22.504Z,99648.22
2022-11-17T03:15:02.970Z,99649.38
2022-11-17T03:17:33.923Z,99637.44
2022-11-17T03:20:05.179Z,99643.13
2022-11-17T03:22:36.324Z,99640.44
2022-11-17T03:25:05.915Z,99630.53
2022-11-17T03:27:36.536Z,99614.97
2022-11-17T03:30:08.191Z,99618.81
2022-11-17T03:32:38.364Z,99610.72
2022-11-17T03:35:08.611Z,99611.03
2022-11-17T03:37:38.226Z,99612.81
2022-11-17T03:40:10.024Z,99602.03
2022-11-17T03:42:39.364Z,99608.94
2022-11-17T03:45:12.368Z,99594.41
2022-11-17T03:47:40.108Z,99594.75
2022-11-17T03:50:11.968Z,99600.00
2022-11-17T03:52:39.751Z,99598.13
2022-11-17T03:55:09.079Z,99590.63
2022-11-17T03:57:41.392Z,99590.31
2022-11-17T04:00:11.871Z,99591.94
2022-11-17T04:02:41.608Z,99595.84
2022-11-17T04:05:09.526Z,99586.25
2022-11-17T04:07:40.031Z,99585.69
2022-11-17T04:10:09.259Z,99584.69
2022-11-17T04:12:54.528Z,99593.31
2022-11-17T04:15:52.385Z,99586.44
2022-11-17T04:18:20.128Z,99588.41
2022-11-17T04:20:51.337Z,99574.63
2022-11-17T04:23:19.061Z,99584.72
2022-11-17T04:26:06.023Z,99577.97
2022-11-17T04:28:38.677Z,99573.94
2022-11-17T04:31:10.180Z,99575.00
2022-11-17T04:33:38.981Z,99570.59
2022-11-17T04:36:07.370Z,99570.41
2022-11-17T04:38:34.872Z,99559.84
2022-11-17T04:41:21.519Z,99568.84
2022-11-17T04:43:48.960Z,99562.81
2022-11-17T04:46:18.775Z,99573.06
2022-11-17T04:48:48.481Z,99550.25
2022-11-17T04:51:16.255Z,99553.09
2022-11-17T04:53:44.196Z,99557.66
2022-11-17T04:56:11.884Z,99556.75
2022-11-17T04:58:39.348Z,99555.88
2022-11-17T05:01:14.061Z,99542.69
2022-11-17T05:03:44.521Z,99552.53
2022-11-17T05:06:13.389Z,99536.81
2022-11-17T05:08:41.164Z,99532.47
2022-11-17T05:11:26.991Z,99532.69
2022-11-17T05:13:54.912Z,99534.22
2022-11-17T05:16:40.867Z,99530.41
2022-11-17T05:19:12.482Z,99524.25
2022-11-17T05:21:40.156Z,99530.41
2022-11-17T05:24:08.356Z,99538.63
2022-11-17T05:26:38.091Z,99529.94
2022-11-17T05:29:07.117Z,99533.63
2022-11-17T05:31:35.311Z,99535.13
2022-11-17T05:34:02.997Z,99520.44
2022-11-17T05:36:32.031Z,99521.00
2022-11-17T05:38:59.693Z,99519.97
2022-11-17T05:41:28.691Z,99520.22
2022-11-17T05:43:56.847Z,99531.91
2022-11-17T05:46:24.595Z,99521.44
2022-11-17T05:48:53.267Z,99524.84
2022-11-17T05:51:22.623Z,99521.94
2022-11-17T05:53:51.619Z,99523.09
2022-11-17T05:56:38.130Z,99517.72
2022-11-17T05:59:15.861Z,99531.31
2022-11-17T06:01:45.215Z,99521.97
2022-11-17T06:04:16.262Z,99525.97
2022-11-17T06:06:44.580Z,99519.88
2022-11-17T06:09:13.422Z,99514.44
2022-11-17T06:11:40.908Z,99513.81
2022-11-17T06:14:08.417Z,99503.91
2022-11-17T06:16:38.408Z,99513.59
2022-11-17T06:19:09.510Z,99499.63
2022-11-17T06:22:04.609Z,99501.16
2022-11-17T06:24:26.420Z,99503.19
2022-11-17T06:26:53.961Z,99512.47
2022-11-17T06:29:21.451Z,99498.16
2022-11-17T06:31:49.015Z,99505.53
2022-11-17T06:34:16.681Z,99505.28
2022-11-17T06:36:44.143Z,99508.88
2022-11-17T06:39:11.624Z,99486.66
2022-11-17T06:41:40.650Z,99494.13
2022-11-17T06:44:08.131Z,99495.44
2022-11-17T06:46:38.888Z,99492.47
2022-11-17T06:49:07.138Z,99500.53
2022-11-17T06:51:34.756Z,99497.75
2022-11-17T06:54:05.243Z,99504.69
2022-11-17T06:56:32.688Z,99498.47
2022-11-17T06:59:01.468Z,99506.94
2022-11-17T07:01:28.939Z,99497.31
2022-11-17T07:03:56.394Z,99487.72
2022-11-17T07:06:23.843Z,99487.13
2022-11-17T07:08:51.698Z,99487.72
2022-11-17T07:11:19.970Z,99494.56
2022-11-17T07:13:47.434Z,99493.31
2022-11-17T07:16:23.173Z,99487.84
2022-11-17T07:18:51.576Z,99487.94
2022-11-17T07:21:19.112Z,99502.31
2022-11-17T07:23:46.527Z,99498.72
2022-11-17T07:26:14.265Z,99504.38
2022-11-17T07:28:41.826Z,99495.22
2022-11-17T07:31:10.014Z,99503.59
2022-11-17T07:33:38.817Z,99495.81
2022-11-17T07:36:09.338Z,99493.97
2022-11-17T07:38:37.637Z,99497.78
2022-11-17T07:41:06.668Z,99495.38
2022-11-17T07:43:34.987Z,99499.53
2022-11-17T07:46:04.898Z,99505.41
2022-11-17T07:48:33.390Z,99495.00
2022-11-17T07:51:03.034Z,99491.06
2022-11-17T07:53:32.319Z,99492.00
2022-11-17T07:56:03.969Z,99488.78
2022-11-17T07:58:31.605Z,99492.56
2022-11-17T08:00:59.250Z,99498.28
2022-11-17T08:03:26.787Z,99496.19
2022-11-17T08:05:54.622Z,99496.59
2022-11-17T08:08:23.522Z,99492.34
2022-11-17T08:10:50.951Z,99484.03
2022-11-17T08:13:18.383Z,99491.53
2022-11-17T08:15:45.862Z,99476.81
2022-11-17T08:18:13.293Z,99475.69
2022-11-17T08:20:40.767Z,99478.59
2022-11-17T08:23:08.770Z,99463.09
2022-11-17T08:25:37.550Z,99479.47
2022-11-17T08:28:05.343Z,99464.66
2022-11-17T08:30:34.761Z,99465.72
2022-11-17T08:33:02.392Z,99468.16
2022-11-17T08:35:35.856Z,99473.16
2022-11-17T08:38:04.721Z,99465.63
2022-11-17T08:40:32.303Z,99467.94
2022-11-17T08:43:01.783Z,99465.50
2022-11-17T08:45:29.629Z,99458.56
2022-11-17T08:47:57.436Z,99457.28
2022-11-17T08:50:25.163Z,99449.88
2022-11-17T08:52:53.046Z,99449.41
2022-11-17T08:55:20.667Z,99445.56
2022-11-17T08:57:48.183Z,99436.44
2022-11-17T09:00:20.476Z,99441.44
2022-11-17T09:02:47.968Z,99428.94
2022-11-17T09:05:15.531Z,99443.25
2022-11-17T09:07:43.116Z,99446.41
2022-11-17T09:10:11.273Z,99442.59
2022-11-17T09:12:38.862Z,99440.25
2022-11-17T09:15:07.258Z,99444.28
2022-11-17T09:17:36.215Z,99444.44
2022-11-17T09:20:03.749Z,99449.97
2022-11-17T09:22:31.198Z,99451.63
2022-11-17T09:24:58.631Z,99440.38
2022-11-17T09:27:26.118Z,99444.53
2022-11-17T09:29:53.595Z,99442.69
2022-11-17T09:32:21.043Z,99443.78
2022-11-17T09:34:49.911Z,99434.69
2022-11-17T09:37:17.374Z,99450.66
2022-11-17T09:39:44.943Z,99444.16
2022-11-17T09:42:14.387Z,99440.25
2022-11-17T09:44:45.210Z,99454.22
2022-11-17T09:47:20.822Z,99448.09
2022-11-17T09:49:59.073Z,99449.75
2022-11-17T09:52:29.538Z,99441.88
2022-11-17T09:54:58.389Z,99440.88
2022-11-17T09:57:30.686Z,99436.53
2022-11-17T10:00:05.899Z,99442.78
2022-11-17T10:02:33.634Z,99435.25
2022-11-17T10:05:02.611Z,99433.00
2022-11-17T10:07:31.638Z,99437.78
2022-11-17T10:09:59.515Z,99436.31
2022-11-17T10:12:33.402Z,99416.81
2022-11-17T10:15:18.198Z,99434.75
2022-11-17T10:17:45.703Z,99417.06
2022-11-17T10:20:17.438Z,99435.66
2022-11-17T10:22:45.292Z,99421.13
2022-11-17T10:25:23.003Z,99421.50
2022-11-17T10:27:53.789Z,99405.00
2022-11-17T10:30:23.331Z,99408.84
2022-11-17T10:32:52.950Z,99412.13
2022-11-17T10:35:23.722Z,99401.84
2022-11-17T10:37:56.319Z,99407.56
2022-11-17T10:40:26.093Z,99401.84
2022-11-17T10:43:06.649Z,99398.72
2022-11-17T10:45:34.418Z,99395.78
2022-11-17T10:48:19.888Z,99388.53
2022-11-17T10:50:54.316Z,99386.06
2022-11-17T10:53:28.791Z,99377.97
2022-11-17T10:55:59.235Z,99376.44
2022-11-17T10:58:28.478Z,99376.22
2022-11-17T11:00:57.267Z,99378.31
2022-11-17T11:03:26.329Z,99381.09
2022-11-17T11:06:00.853Z,99376.44
2022-11-17T11:08:33.366Z,99383.53
2022-11-17T11:11:01.223Z,99376.91
2022-11-17T11:13:33.670Z,99378.91
2022-11-17T11:16:01.142Z,99366.78
2022-11-17T11:18:30.294Z,99356.56
2022-11-17T11:21:08.626Z,99360.25
2022-11-17T11:23:42.462Z,99367.22
2022-11-17T11:26:20.607Z,99357.34
2022-11-17T11:28:59.812Z,99357.81
2022-11-17T11:31:35.783Z,99357.22
2022-11-17T11:34:10.655Z,99346.75
2022-11-17T11:36:43.026Z,99347.09
2022-11-17T11:39:20.572Z,99349.28
2022-11-17T11:42:07.511Z,99339.88
2022-11-17T11:44:44.710Z,99346.19
2022-11-17T11:47:18.767Z,99347.00
2022-11-17T11:49:50.427Z,99348.34
2022-11-17T11:52:22.319Z,99350.00
2022-11-17T11:54:52.395Z,99341.03
2022-11-17T11:57:22.698Z,99337.97
2022-11-17T11:59:53.519Z,99331.09
2022-11-17T12:02:29.147Z,99339.78
2022-11-17T12:05:02.215Z,99343.81
2022-11-17T12:07:37.131Z,99353.47
2022-11-17T12:10:07.632Z,99340.38
2022-11-17T12:12:37.790Z,99334.16
2022-11-17T12:15:33.322Z,99344.81
2022-11-17T12:18:03.688Z,99332.41
2022-11-17T12:20:59.023Z,99335.06
2022-11-17T12:24:02.052Z,99329.81
2022-11-17T12:26:30.808Z,99339.81
2022-11-17T12:29:30.563Z,99342.97
2022-11-17T12:31:59.375Z,99343.06
2022-11-17T12:34:28.924Z,99343.34
2022-11-17T12:37:16.160Z,99343.75
2022-11-17T12:40:02.888Z,99339.91
2022-11-17T12:42:31.212Z,99338.44
2022-11-17T12:45:20.215Z,99340.16
2022-11-17T12:47:59.420Z,99332.41
2022-11-17T12:50:51.226Z,99342.09
2022-11-17T12:53:35.244Z,99347.50
2022-11-17T12:56:16.347Z,99349.03
2022-11-17T12:58:53.720Z,99345.78
2022-11-17T13:01:25.684Z,99341.44
2022-11-17T13:03:56.097Z,99340.66
2022-11-17T13:06:38.981Z,99341.19
2022-11-17T13:09:08.520Z,99343.66
2022-11-17T13:11:37.319Z,99356.75
2022-11-17T13:14:09.573Z,99348.78
2022-11-17T13:16:38.114Z,99352.00
2022-11-17T13:19:05.650Z,99356.22
2022-11-17T13:21:33.999Z,99343.53
2022-11-17T13:24:01.456Z,99347.19
2022-11-17T13:26:31.383Z,99349.63
2022-11-17T13:29:05.813Z,99353.72
2022-11-17T13:31:33.440Z,99353.13
2022-11-17T13:34:05.379Z,99355.31
2022-11-17T13:36:33.342Z,99357.41
2022-11-17T13:39:01.439Z,99355.19
2022-11-17T13:41:30.523Z,99355.47
2022-11-17T13:43:58.293Z,99353.84
2022-11-17T13:46:27.158Z,99359.19
2022-11-17T13:48:54.618Z,99351.06
2022-11-17T13:51:25.391Z,99360.69
2022-11-17T13:53:55.239Z,99352.72
2022-11-17T13:56:25.142Z,99344.19
2022-11-17T13:58:53.058Z,99361.25
2022-11-17T14:01:24.854Z,99352.47
2022-11-17T14:03:53.659Z,99353.66
2022-11-17T14:06:21.115Z,99348.47
2022-11-17T14:09:05.329Z,99354.47
2022-11-17T14:11:32.930Z,99353.03
2022-11-17T14:14:01.198Z,99357.22
2022-11-17T14:16:30.394Z,99362.66
2022-11-17T14:19:05.171Z,99360.69
2022-11-17T14:21:33.409Z,99370.59
2022-11-17T14:24:03.937Z,99364.28
2022-11-17T14:26:31.607Z,99368.88
2022-11-17T14:29:02.140Z,99374.75
2022-11-17T14:31:31.363Z,99370.97
2022-11-17T14:33:59.674Z,99369.59
2022-11-17T14:36:28.666Z,99378.16
2022-11-17T14:38:56.151Z,99385.94
2022-11-17T14:41:23.602Z,99369.97
2022-11-17T14:43:51.323Z,99382.50
2022-11-17T14:46:22.206Z,99381.13
2022-11-17T14:48:49.704Z,99383.06
2022-11-17T14:51:17.467Z,99382.91
2022-11-17T14:53:46.896Z,99385.66
2022-11-17T14:56:16.285Z,99383.56
2022-11-17T14:58:43.722Z,99384.22
2022-11-17T15:01:12.577Z,99395.56
2022-11-17T15:03:40.159Z,99392.56
2022-11-17T15:06:09.323Z,99393.28
2022-11-17T15:08:36.884Z,99400.53
2022-11-17T15:11:06.438Z,99401.47
2022-11-17T15:13:33.922Z,99403.66
2022-11-17T15:16:02.857Z,99406.28
2022-11-17T15:18:30.585Z,99406.78
2022-11-17T15:21:02.194Z,99396.88
2022-11-17T15:23:30.046Z,99405.16
2022-11-17T15:25:57.539Z,99408.59
2022-11-17T15:28:30.482Z,99410.41
2022-11-17T15:30:58.263Z,99408.72
2022-11-17T15:33:26.072Z,99414.09
2022-11-17T15:36:01.582Z,99413.94
2022-11-17T15:38:29.184Z,99411.78
2022-11-17T15:40:57.854Z,99421.34
2022-11-17T15:43:28.826Z,99417.06
2022-11-17T15:46:02.630Z,99415.84
2022-11-17T15:48:31.434Z,99419.00
2022-11-17T15:50:59.577Z,99413.81
2022-11-17T15:53:31.983Z,99407.25
2022-11-17T15:56:06.254Z,99420.88
2022-11-17T15:58:36.689Z,99423.47
2022-11-17T16:01:11.695Z,99430.06
2022-11-17T16:03:39.447Z,99423.31
2022-11-17T16:06:07.347Z,99425.66
2022-11-17T16:08:34.883Z,99433.75
2022-11-17T16:11:02.380Z,99422.84
2022-11-17T16:13:29.859Z,99424.50
2022-11-17T16:15:58.703Z,99425.78
2022-11-17T16:18:26.304Z,99425.31
2022-11-17T16:20:53.891Z,99422.53
2022-11-17T16:23:21.486Z,99427.88
2022-11-17T16:25:49.625Z,99433.97
2022-11-17T16:28:17.966Z,99438.53
2022-11-17T16:30:45.715Z,99436.22
2022-11-17T16:33:16.350Z,99428.09
2022-11-17T16:35:45.322Z,99429.69
2022-11-17T16:38:14.971Z,99431.31
2022-11-17T16:40:42.510Z,99432.78
2022-11-17T16:43:11.486Z,99428.00
2022-11-17T16:45:43.050Z,99423.56
2022-11-17T16:48:10.571Z,99430.44
2022-11-17T16:50:40.645Z,99429.00
2022-11-17T16:53:08.126Z,99426.72
2022-11-17T16:55:36.212Z,99424.16
2022-11-17T16:58:04.083Z,99422.25
2022-11-17T17:00:31.967Z,99426.63
2022-11-17T17:02:59.559Z,99433.56
2022-11-17T17:05:29.235Z,99429.19
2022-11-17T17:07:58.080Z,99429.19
2022-11-17T17:10:25.560Z,99431.94
2022-11-17T17:12:53.094Z,99438.16
2022-11-17T17:15:20.590Z,99438.31
2022-11-17T17:17:48.043Z,99434.28
2022-11-17T17:20:16.010Z,99437.47
2022-11-17T17:22:43.435Z,99449.28
2022-11-17T17:25:12.392Z,99445.78
2022-11-17T17:27:39.831Z,99449.56
2022-11-17T17:30:08.109Z,99447.38
2022-11-17T17:32:35.539Z,99453.00
2022-11-17T17:35:02.979Z,99451.34
2022-11-17T17:37:32.662Z,99451.00
2022-11-17T17:40:00.107Z,99452.41
2022-11-17T17:42:28.879Z,99458.88
2022-11-17T17:44:56.346Z,99457.13
2022-11-17T17:47:23.890Z,99462.34
2022-11-17T17:49:51.373Z,99464.72
2022-11-17T17:52:19.026Z,99461.78
2022-11-17T17:54:46.462Z,99460.72
2022-11-17T17:57:13.893Z,99462.59
2022-11-17T17:59:42.667Z,99471.16
2022-11-17T18:02:10.146Z,99459.69
2022-11-17T18:04:37.998Z,99467.19
2022-11-17T18:07:05.790Z,99470.69
2022-11-17T18:09:33.691Z,99476.66
2022-11-17T18:12:01.149Z,99475.78
2022-11-17T18:14:28.803Z,99484.56
2022-11-17T18:16:58.505Z,99482.63
2022-11-17T18:19:31.527Z,99476.09
2022-11-17T18:22:03.915Z,99477.84
2022-11-17T18:24:32.285Z,99480.41
2022-11-17T18:26:59.757Z,99478.56
2022-11-17T18:29:27.300Z,99481.81
2022-11-17T18:31:54.799Z,99476.25
2022-11-17T18:34:25.194Z,99471.97
2022-11-17T18:36:55.340Z,99469.94
2022-11-17T18:39:23.201Z,99474.97
2022-11-17T18:41:50.686Z,99477.19
2022-11-17T18:44:19.498Z,99480.50
2022-11-17T18:46:47.166Z,99477.03
2022-11-17T18:49:15.070Z,99484.56
2022-11-17T18:51:44.032Z,99497.53
2022-11-17T18:54:11.887Z,99490.41
2022-11-17T18:56:39.807Z,99495.59
2022-11-17T18:59:11.255Z,99499.44
2022-11-17T19:01:39.789Z,99492.44
2022-11-17T19:04:07.696Z,99504.34
2022-11-17T19:06:35.536Z,99503.50
2022-11-17T19:09:04.618Z,99509.91
2022-11-17T19:11:33.455Z,99514.47
2022-11-17T19:14:03.129Z,99515.63
2022-11-17T19:16:31.710Z,99516.31
2022-11-17T19:19:00.140Z,99519.91
2022-11-17T19:21:28.723Z,99517.84
2022-11-17T19:23:58.229Z,99513.53
2022-11-17T19:26:28.281Z,99509.16
2022-11-17T19:28:56.774Z,99518.97
2022-11-17T19:31:24.534Z,99518.41
2022-11-17T19:33:52.273Z,99523.34
2022-11-17T19:36:21.390Z,99523.25
2022-11-17T19:38:49.665Z,99524.13
2022-11-17T19:41:18.792Z,99530.31
2022-11-17T19:43:47.833Z,99532.81
2022-11-17T19:46:16.743Z,99534.50
2022-11-17T19:48:44.655Z,99542.34
2022-11-17T19:51:14.813Z,99536.00
2022-11-17T19:53:42.501Z,99541.78
2022-11-17T19:56:10.096Z,99535.75
2022-11-17T19:58:37.573Z,99530.09
2022-11-17T20:01:11.090Z,99538.88
2022-11-17T20:03:38.727Z,99541.53
2022-11-17T20:06:06.882Z,99538.41
2022-11-17T20:08:34.538Z,99548.25
2022-11-17T20:11:06.742Z,99539.91
2022-11-17T20:13:34.449Z,99540.94
2022-11-17T20:16:07.441Z,99545.25
2022-11-17T20:18:39.222Z,99546.50
2022-11-17T20:21:07.365Z,99542.34
2022-11-17T20:23:35.396Z,99541.28
2022-11-17T20:26:06.106Z,99545.59
2022-11-17T20:28:34.169Z,99542.81
2022-11-17T20:31:06.699Z,99548.50
2022-11-17T20:33:34.256Z,99542.56
2022-11-17T20:36:03.846Z,99547.28
2022-11-17T20:38:31.787Z,99554.38
2022-11-17T20:40:59.835Z,99561.44
2022-11-17T20:43:27.906Z,99555.88
2022-11-17T20:45:55.652Z,99561.53
2022-11-17T20:48:23.632Z,99553.78
2022-11-17T20:50:58.195Z,99557.63
2022-11-17T20:53:27.539Z,99558.44
2022-11-17T20:55:56.223Z,99558.78
2022-11-17T20:58:24.302Z,99560.66
2022-11-17T21:00:52.128Z,99559.38
2022-11-17T21:03:20.062Z,99558.88
2022-11-17T21:05:58.467Z,99559.72
2022-11-17T21:08:30.603Z,99552.16
2022-11-17T21:10:58.995Z,99555.22
2022-11-17T21:13:26.667Z,99556.44
2022-11-17T21:16:08.203Z,99557.16
2022-11-17T21:18:36.815Z,99561.66
2022-11-17T21:21:08.556Z,99560.53
2022-11-17T21:23:37.874Z,99573.81
2022-11-17T21:26:06.081Z,99574.84
2022-11-17T21:28:33.566Z,99577.75
2022-11-17T21:31:05.367Z,99574.88
2022-11-17T21:33:32.981Z,99574.63
2022-11-17T21:36:03.671Z,99587.94
2022-11-17T21:38:31.400Z,99577.19
2022-11-17T21:41:03.747Z,99587.25
2022-11-17T21:43:31.362Z,99584.59
2022-11-17T21:46:02.122Z,99593.47
2022-11-17T21:48:29.807Z,99598.81
2022-11-17T21:50:57.462Z,99599.97
2022-11-17T21:53:24.935Z,99603.22
2022-11-17T21:55:52.408Z,99604.84
2022-11-17T21:58:21.191Z,99613.50
2022-11-17T22:00:48.650Z,99611.41
2022-11-17T22:03:16.165Z,99615.38
2022-11-17T22:05:43.603Z,99617.19
2022-11-17T22:08:11.180Z,99612.34
2022-11-17T22:10:38.700Z,99623.25
2022-11-17T22:13:08.211Z,99615.78
2022-11-17T22:15:37.008Z,99624.84
2022-11-17T22:18:04.578Z,99627.47
2022-11-17T22:20:32.015Z,99615.09
2022-11-17T22:22:59.459Z,99633.75
2022-11-17T22:28:14.640Z,99635.03
2022-11-17T22:30:43.425Z,99632.47
2022-11-17T22:33:10.846Z,99640.59
2022-11-17T22:35:38.382Z,99639.03
2022-11-17T22:38:05.861Z,99645.31
2022-11-17T22:40:36.411Z,99639.84
2022-11-17T22:43:04.736Z,99650.25
2022-11-17T22:45:32.808Z,99646.94
2022-11-17T22:48:02.517Z,99655.19
2022-11-17T22:50:29.965Z,99661.53
2022-11-17T22:52:57.462Z,99659.94
2022-11-17T22:55:24.942Z,99653.38
2022-11-17T22:57:52.436Z,99651.66
2022-11-17T23:00:21.130Z,99651.66
2022-11-17T23:02:48.581Z,99653.06
2022-11-17T23:05:17.432Z,99661.78
2022-11-17T23:07:45.096Z,99657.66
2022-11-17T23:10:13.011Z,99663.50
2022-11-17T23:12:40.475Z,99666.00
2022-11-17T23:15:09.060Z,99658.06
2022-11-17T23:17:36.692Z,99675.03
2022-11-17T23:20:04.556Z,99671.91
2022-11-17T23:22:33.909Z,99680.25
2022-11-17T23:25:01.365Z,99674.44
2022-11-17T23:27:28.814Z,99672.94
2022-11-17T23:29:56.287Z,99678.00
2022-11-17T23:32:23.803Z,99682.22
2022-11-17T23:34:51.294Z,99679.22
2022-11-17T23:37:19.347Z,99683.91
2022-11-17T23:39:48.149Z,99689.84
2022-11-17T23:42:15.605Z,99686.94
2022-11-17T23:44:43.039Z,99692.59
2022-11-17T23:47:10.488Z,99689.94
2022-11-17T23:49:37.943Z,99692.81
2022-11-17T23:52:05.618Z,99690.03
2022-11-17T23:54:33.271Z,99690.59
2022-11-17T23:57:02.043Z,99698.94
2022-11-17T23:59:29.549Z,99685.41
